sensor_id;sensor_type;location;lat;lon;timestamp;P1;durP1;ratioP1;P2;durP2;ratioP2
24635;SDS011;12772;49.794;10.024;2023-06-14T00:03:45;5.10;;;4.68;;
24635;SDS011;12772;49.794;10.024;2023-06-14T00:07:48;4.00;;;3.70;;
24635;SDS011;12772;49.794;10.024;2023-06-14T00:11:53;4.65;;;3.55;;
24635;SDS011;12772;49.794;10.024;2023-06-14T00:15:55;4.25;;;3.95;;
24635;SDS011;12772;49.794;10.024;2023-06-14T00:19:58;4.28;;;3.63;;
24635;SDS011;12772;49.794;10.024;2023-06-14T00:24:00;6.28;;;4.88;;
24635;SDS011;12772;49.794;10.024;2023-06-14T00:28:03;6.50;;;5.00;;
24635;SDS011;12772;49.794;10.024;2023-06-14T00:32:05;7.78;;;5.50;;
24635;SDS011;12772;49.794;10.024;2023-06-14T00:36:07;5.80;;;5.20;;
24635;SDS011;12772;49.794;10.024;2023-06-14T00:40:10;5.22;;;4.75;;
24635;SDS011;12772;49.794;10.024;2023-06-14T00:44:13;5.20;;;4.70;;
24635;SDS011;12772;49.794;10.024;2023-06-14T00:48:18;9.35;;;6.35;;
24635;SDS011;12772;49.794;10.024;2023-06-14T00:52:21;10.32;;;8.13;;
24635;SDS011;12772;49.794;10.024;2023-06-14T00:56:25;10.75;;;8.50;;
24635;SDS011;12772;49.794;10.024;2023-06-14T01:00:28;8.38;;;5.35;;
24635;SDS011;12772;49.794;10.024;2023-06-14T01:04:30;6.63;;;5.28;;
24635;SDS011;12772;49.794;10.024;2023-06-14T01:08:37;6.55;;;4.45;;
24635;SDS011;12772;49.794;10.024;2023-06-14T01:12:58;4.70;;;4.22;;
24635;SDS011;12772;49.794;10.024;2023-06-14T01:17:00;4.13;;;3.80;;
24635;SDS011;12772;49.794;10.024;2023-06-14T01:21:03;5.30;;;4.35;;
24635;SDS011;12772;49.794;10.024;2023-06-14T01:25:06;5.93;;;4.20;;
24635;SDS011;12772;49.794;10.024;2023-06-14T01:29:08;5.35;;;4.25;;
24635;SDS011;12772;49.794;10.024;2023-06-14T01:33:12;4.53;;;4.13;;
24635;SDS011;12772;49.794;10.024;2023-06-14T01:37:15;6.80;;;4.20;;
24635;SDS011;12772;49.794;10.024;2023-06-14T01:41:18;5.10;;;4.50;;
24635;SDS011;12772;49.794;10.024;2023-06-14T01:45:22;4.63;;;4.22;;
24635;SDS011;12772;49.794;10.024;2023-06-14T01:49:25;5.22;;;4.63;;
24635;SDS011;12772;49.794;10.024;2023-06-14T01:53:27;4.60;;;3.67;;
24635;SDS011;12772;49.794;10.024;2023-06-14T01:57:29;4.22;;;3.80;;
24635;SDS011;12772;49.794;10.024;2023-06-14T02:01:31;5.05;;;4.65;;
24635;SDS011;12772;49.794;10.024;2023-06-14T02:05:34;4.30;;;3.90;;
24635;SDS011;12772;49.794;10.024;2023-06-14T02:09:39;5.30;;;4.80;;
24635;SDS011;12772;49.794;10.024;2023-06-14T02:13:42;7.72;;;4.40;;
24635;SDS011;12772;49.794;10.024;2023-06-14T02:17:48;5.70;;;4.35;;
24635;SDS011;12772;49.794;10.024;2023-06-14T02:21:50;5.15;;;3.95;;
24635;SDS011;12772;49.794;10.024;2023-06-14T02:25:52;5.20;;;4.70;;
24635;SDS011;12772;49.794;10.024;2023-06-14T02:29:54;4.88;;;4.38;;
24635;SDS011;12772;49.794;10.024;2023-06-14T02:33:56;5.43;;;4.10;;
24635;SDS011;12772;49.794;10.024;2023-06-14T02:37:58;5.18;;;4.15;;
24635;SDS011;12772;49.794;10.024;2023-06-14T02:42:01;6.57;;;4.10;;
24635;SDS011;12772;49.794;10.024;2023-06-14T02:46:03;4.72;;;4.28;;
24635;SDS011;12772;49.794;10.024;2023-06-14T02:50:05;4.57;;;4.18;;
24635;SDS011;12772;49.794;10.024;2023-06-14T02:54:08;6.22;;;4.60;;
24635;SDS011;12772;49.794;10.024;2023-06-14T02:58:10;4.55;;;4.10;;
24635;SDS011;12772;49.794;10.024;2023-06-14T03:02:13;5.15;;;4.65;;
24635;SDS011;12772;49.794;10.024;2023-06-14T03:06:15;6.28;;;4.35;;
24635;SDS011;12772;49.794;10.024;2023-06-14T03:10:17;4.53;;;3.92;;
24635;SDS011;12772;49.794;10.024;2023-06-14T03:14:19;5.07;;;4.57;;
24635;SDS011;12772;49.794;10.024;2023-06-14T03:18:21;5.32;;;4.90;;
24635;SDS011;12772;49.794;10.024;2023-06-14T03:22:23;5.20;;;4.70;;
24635;SDS011;12772;49.794;10.024;2023-06-14T03:26:26;4.72;;;4.18;;
24635;SDS011;12772;49.794;10.024;2023-06-14T03:30:29;4.75;;;4.22;;
24635;SDS011;12772;49.794;10.024;2023-06-14T03:34:31;5.20;;;4.60;;
24635;SDS011;12772;49.794;10.024;2023-06-14T03:38:33;5.18;;;4.68;;
24635;SDS011;12772;49.794;10.024;2023-06-14T03:42:35;5.05;;;4.32;;
24635;SDS011;12772;49.794;10.024;2023-06-14T03:46:37;5.85;;;4.20;;
24635;SDS011;12772;49.794;10.024;2023-06-14T03:50:39;4.72;;;4.32;;
24635;SDS011;12772;49.794;10.024;2023-06-14T03:54:43;6.85;;;4.80;;
24635;SDS011;12772;49.794;10.024;2023-06-14T03:58:45;5.93;;;5.22;;
24635;SDS011;12772;49.794;10.024;2023-06-14T04:02:47;5.50;;;5.00;;
24635;SDS011;12772;49.794;10.024;2023-06-14T04:06:49;6.78;;;4.45;;
24635;SDS011;12772;49.794;10.024;2023-06-14T04:10:52;6.18;;;4.80;;
24635;SDS011;12772;49.794;10.024;2023-06-14T04:14:54;5.53;;;4.30;;
24635;SDS011;12772;49.794;10.024;2023-06-14T04:18:56;5.60;;;5.10;;
24635;SDS011;12772;49.794;10.024;2023-06-14T04:23:10;5.10;;;4.60;;
24635;SDS011;12772;49.794;10.024;2023-06-14T04:27:13;6.72;;;4.80;;
24635;SDS011;12772;49.794;10.024;2023-06-14T04:31:22;5.93;;;4.75;;
24635;SDS011;12772;49.794;10.024;2023-06-14T04:35:25;5.55;;;4.65;;
24635;SDS011;12772;49.794;10.024;2023-06-14T04:39:29;5.95;;;4.65;;
24635;SDS011;12772;49.794;10.024;2023-06-14T04:43:31;4.75;;;4.35;;
24635;SDS011;12772;49.794;10.024;2023-06-14T04:47:38;4.38;;;3.97;;
24635;SDS011;12772;49.794;10.024;2023-06-14T04:51:41;4.82;;;4.43;;
24635;SDS011;12772;49.794;10.024;2023-06-14T04:55:43;5.32;;;4.20;;
24635;SDS011;12772;49.794;10.024;2023-06-14T04:59:46;5.75;;;4.95;;
24635;SDS011;12772;49.794;10.024;2023-06-14T05:03:48;5.15;;;4.30;;
24635;SDS011;12772;49.794;10.024;2023-06-14T05:07:51;5.10;;;4.05;;
24635;SDS011;12772;49.794;10.024;2023-06-14T05:11:53;8.00;;;4.53;;
24635;SDS011;12772;49.794;10.024;2023-06-14T05:15:56;4.50;;;4.10;;
24635;SDS011;12772;49.794;10.024;2023-06-14T05:19:58;6.07;;;4.38;;
24635;SDS011;12772;49.794;10.024;2023-06-14T05:24:00;5.88;;;4.53;;
24635;SDS011;12772;49.794;10.024;2023-06-14T05:28:02;8.13;;;4.30;;
24635;SDS011;12772;49.794;10.024;2023-06-14T05:32:05;5.15;;;4.65;;
24635;SDS011;12772;49.794;10.024;2023-06-14T05:36:09;5.53;;;4.53;;
24635;SDS011;12772;49.794;10.024;2023-06-14T05:40:11;4.82;;;4.40;;
24635;SDS011;12772;49.794;10.024;2023-06-14T05:44:13;6.03;;;4.85;;
24635;SDS011;12772;49.794;10.024;2023-06-14T05:48:16;4.85;;;4.53;;
24635;SDS011;12772;49.794;10.024;2023-06-14T05:52:18;4.60;;;4.20;;
24635;SDS011;12772;49.794;10.024;2023-06-14T05:56:20;4.45;;;4.05;;
24635;SDS011;12772;49.794;10.024;2023-06-14T06:00:22;4.75;;;4.30;;
24635;SDS011;12772;49.794;10.024;2023-06-14T06:04:24;4.80;;;4.35;;
24635;SDS011;12772;49.794;10.024;2023-06-14T06:08:26;5.13;;;4.53;;
24635;SDS011;12772;49.794;10.024;2023-06-14T06:12:28;6.70;;;4.68;;
24635;SDS011;12772;49.794;10.024;2023-06-14T06:16:30;5.53;;;4.70;;
24635;SDS011;12772;49.794;10.024;2023-06-14T06:20:33;5.88;;;4.53;;
24635;SDS011;12772;49.794;10.024;2023-06-14T06:24:36;9.88;;;4.90;;
24635;SDS011;12772;49.794;10.024;2023-06-14T06:28:39;6.25;;;4.70;;
24635;SDS011;12772;49.794;10.024;2023-06-14T06:32:41;5.63;;;4.50;;
24635;SDS011;12772;49.794;10.024;2023-06-14T06:36:43;4.88;;;4.43;;
24635;SDS011;12772;49.794;10.024;2023-06-14T06:40:45;5.00;;;4.60;;
24635;SDS011;12772;49.794;10.024;2023-06-14T06:44:47;6.95;;;5.18;;
24635;SDS011;12772;49.794;10.024;2023-06-14T06:48:49;9.05;;;4.75;;
24635;SDS011;12772;49.794;10.024;2023-06-14T06:52:51;7.22;;;4.95;;
24635;SDS011;12772;49.794;10.024;2023-06-14T06:56:53;6.82;;;5.47;;
24635;SDS011;12772;49.794;10.024;2023-06-14T07:00:55;5.80;;;5.05;;
24635;SDS011;12772;49.794;10.024;2023-06-14T07:04:58;5.72;;;5.03;;
24635;SDS011;12772;49.794;10.024;2023-06-14T07:09:00;6.72;;;4.55;;
24635;SDS011;12772;49.794;10.024;2023-06-14T07:13:04;6.47;;;4.47;;
24635;SDS011;12772;49.794;10.024;2023-06-14T07:17:06;5.30;;;4.65;;
24635;SDS011;12772;49.794;10.024;2023-06-14T07:21:08;5.47;;;4.57;;
24635;SDS011;12772;49.794;10.024;2023-06-14T07:25:10;4.82;;;4.43;;
24635;SDS011;12772;49.794;10.024;2023-06-14T07:29:14;6.63;;;4.78;;
24635;SDS011;12772;49.794;10.024;2023-06-14T07:33:17;4.68;;;4.28;;
24635;SDS011;12772;49.794;10.024;2023-06-14T07:37:19;4.82;;;4.43;;
24635;SDS011;12772;49.794;10.024;2023-06-14T07:41:21;7.05;;;4.88;;
24635;SDS011;12772;49.794;10.024;2023-06-14T07:45:23;5.10;;;4.60;;
24635;SDS011;12772;49.794;10.024;2023-06-14T07:49:25;5.13;;;4.22;;
24635;SDS011;12772;49.794;10.024;2023-06-14T07:53:29;4.97;;;4.22;;
24635;SDS011;12772;49.794;10.024;2023-06-14T07:57:31;4.93;;;4.53;;
24635;SDS011;12772;49.794;10.024;2023-06-14T08:01:34;5.28;;;4.82;;
24635;SDS011;12772;49.794;10.024;2023-06-14T08:05:36;6.10;;;4.72;;
24635;SDS011;12772;49.794;10.024;2023-06-14T08:09:38;6.55;;;4.57;;
24635;SDS011;12772;49.794;10.024;2023-06-14T08:13:40;4.60;;;4.18;;
24635;SDS011;12772;49.794;10.024;2023-06-14T08:17:45;5.25;;;4.47;;
24635;SDS011;12772;49.794;10.024;2023-06-14T08:21:47;4.60;;;4.20;;
24635;SDS011;12772;49.794;10.024;2023-06-14T08:25:50;6.82;;;4.25;;
24635;SDS011;12772;49.794;10.024;2023-06-14T08:29:52;6.43;;;4.40;;
24635;SDS011;12772;49.794;10.024;2023-06-14T08:33:54;5.10;;;4.68;;
24635;SDS011;12772;49.794;10.024;2023-06-14T08:37:56;4.72;;;4.32;;
24635;SDS011;12772;49.794;10.024;2023-06-14T08:41:58;5.93;;;4.43;;
24635;SDS011;12772;49.794;10.024;2023-06-14T08:46:03;5.10;;;4.32;;
24635;SDS011;12772;49.794;10.024;2023-06-14T08:50:07;4.40;;;4.00;;
24635;SDS011;12772;49.794;10.024;2023-06-14T08:54:10;6.63;;;3.95;;
24635;SDS011;12772;49.794;10.024;2023-06-14T08:58:14;5.60;;;4.40;;
24635;SDS011;12772;49.794;10.024;2023-06-14T09:02:16;7.07;;;3.80;;
24635;SDS011;12772;49.794;10.024;2023-06-14T09:06:20;7.72;;;4.18;;
24635;SDS011;12772;49.794;10.024;2023-06-14T09:10:23;5.13;;;3.90;;
24635;SDS011;12772;49.794;10.024;2023-06-14T09:14:27;3.88;;;3.58;;
24635;SDS011;12772;49.794;10.024;2023-06-14T09:18:42;5.45;;;3.85;;
24635;SDS011;12772;49.794;10.024;2023-06-14T09:22:47;4.00;;;3.70;;
24635;SDS011;12772;49.794;10.024;2023-06-14T09:26:52;6.40;;;3.50;;
24635;SDS011;12772;49.794;10.024;2023-06-14T09:30:55;3.85;;;3.53;;
24635;SDS011;12772;49.794;10.024;2023-06-14T09:34:57;6.32;;;4.07;;
24635;SDS011;12772;49.794;10.024;2023-06-14T09:39:00;4.90;;;3.75;;
24635;SDS011;12772;49.794;10.024;2023-06-14T09:43:06;4.32;;;3.92;;
24635;SDS011;12772;49.794;10.024;2023-06-14T09:47:10;4.22;;;3.83;;
24635;SDS011;12772;49.794;10.024;2023-06-14T09:51:13;6.10;;;3.17;;
24635;SDS011;12772;49.794;10.024;2023-06-14T09:55:18;3.78;;;3.30;;
24635;SDS011;12772;49.794;10.024;2023-06-14T09:59:21;4.90;;;3.72;;
24635;SDS011;12772;49.794;10.024;2023-06-14T10:03:30;3.70;;;3.40;;
24635;SDS011;12772;49.794;10.024;2023-06-14T10:07:35;4.03;;;3.58;;
24635;SDS011;12772;49.794;10.024;2023-06-14T10:11:41;3.70;;;3.30;;
24635;SDS011;12772;49.794;10.024;2023-06-14T10:24:28;4.40;;;3.65;;
24635;SDS011;12772;49.794;10.024;2023-06-14T10:28:37;5.57;;;3.58;;
24635;SDS011;12772;49.794;10.024;2023-06-14T10:33:02;10.25;;;6.07;;
24635;SDS011;12772;49.794;10.024;2023-06-14T10:37:11;7.13;;;3.70;;
24635;SDS011;12772;49.794;10.024;2023-06-14T10:41:14;6.47;;;3.42;;
24635;SDS011;12772;49.794;10.024;2023-06-14T10:45:18;3.67;;;3.38;;
24635;SDS011;12772;49.794;10.024;2023-06-14T10:49:36;3.80;;;3.50;;
24635;SDS011;12772;49.794;10.024;2023-06-14T10:53:46;3.72;;;2.95;;
24635;SDS011;12772;49.794;10.024;2023-06-14T11:06:16;4.10;;;2.88;;
24635;SDS011;12772;49.794;10.024;2023-06-14T11:10:36;3.28;;;3.00;;
24635;SDS011;12772;49.794;10.024;2023-06-14T11:14:38;3.10;;;2.80;;
24635;SDS011;12772;49.794;10.024;2023-06-14T11:18:41;3.67;;;2.63;;
24635;SDS011;12772;49.794;10.024;2023-06-14T11:22:44;3.65;;;3.00;;
24635;SDS011;12772;49.794;10.024;2023-06-14T11:26:47;3.67;;;2.92;;
24635;SDS011;12772;49.794;10.024;2023-06-14T11:30:59;3.70;;;2.92;;
24635;SDS011;12772;49.794;10.024;2023-06-14T11:35:02;3.13;;;2.78;;
24635;SDS011;12772;49.794;10.024;2023-06-14T11:39:08;3.08;;;2.67;;
24635;SDS011;12772;49.794;10.024;2023-06-14T11:43:11;6.30;;;2.97;;
24635;SDS011;12772;49.794;10.024;2023-06-14T11:47:13;3.92;;;2.58;;
24635;SDS011;12772;49.794;10.024;2023-06-14T11:51:15;4.70;;;2.95;;
24635;SDS011;12772;49.794;10.024;2023-06-14T11:55:18;2.75;;;2.55;;
24635;SDS011;12772;49.794;10.024;2023-06-14T11:59:20;3.10;;;2.90;;
24635;SDS011;12772;49.794;10.024;2023-06-14T12:03:23;2.78;;;2.58;;
24635;SDS011;12772;49.794;10.024;2023-06-14T12:07:26;3.10;;;2.80;;
24635;SDS011;12772;49.794;10.024;2023-06-14T12:11:33;6.18;;;2.50;;
24635;SDS011;12772;49.794;10.024;2023-06-14T12:15:37;2.70;;;2.50;;
24635;SDS011;12772;49.794;10.024;2023-06-14T12:19:42;6.38;;;3.38;;
24635;SDS011;12772;49.794;10.024;2023-06-14T12:23:46;5.95;;;3.25;;
24635;SDS011;12772;49.794;10.024;2023-06-14T12:27:49;4.35;;;2.60;;
24635;SDS011;12772;49.794;10.024;2023-06-14T12:31:51;3.42;;;3.13;;
24635;SDS011;12772;49.794;10.024;2023-06-14T12:35:55;3.90;;;2.67;;
24635;SDS011;12772;49.794;10.024;2023-06-14T12:39:57;4.40;;;2.55;;
24635;SDS011;12772;49.794;10.024;2023-06-14T12:44:00;4.50;;;2.60;;
24635;SDS011;12772;49.794;10.024;2023-06-14T12:48:04;2.83;;;2.40;;
24635;SDS011;12772;49.794;10.024;2023-06-14T12:52:06;8.70;;;3.30;;
24635;SDS011;12772;49.794;10.024;2023-06-14T12:56:09;3.47;;;2.50;;
24635;SDS011;12772;49.794;10.024;2023-06-14T13:00:11;2.90;;;2.70;;
24635;SDS011;12772;49.794;10.024;2023-06-14T13:04:13;4.28;;;3.00;;
24635;SDS011;12772;49.794;10.024;2023-06-14T13:08:15;3.15;;;2.85;;
24635;SDS011;12772;49.794;10.024;2023-06-14T13:12:17;2.90;;;2.63;;
24635;SDS011;12772;49.794;10.024;2023-06-14T13:16:20;2.60;;;2.40;;
24635;SDS011;12772;49.794;10.024;2023-06-14T13:20:22;3.25;;;2.92;;
24635;SDS011;12772;49.794;10.024;2023-06-14T13:24:24;2.35;;;2.22;;
24635;SDS011;12772;49.794;10.024;2023-06-14T13:28:26;3.03;;;2.80;;
24635;SDS011;12772;49.794;10.024;2023-06-14T13:32:28;2.70;;;2.50;;
24635;SDS011;12772;49.794;10.024;2023-06-14T13:36:30;5.63;;;2.50;;
24635;SDS011;12772;49.794;10.024;2023-06-14T13:40:32;3.97;;;2.80;;
24635;SDS011;12772;49.794;10.024;2023-06-14T13:44:34;2.50;;;2.30;;
24635;SDS011;12772;49.794;10.024;2023-06-14T13:48:36;2.75;;;2.55;;
24635;SDS011;12772;49.794;10.024;2023-06-14T13:52:38;4.57;;;3.13;;
24635;SDS011;12772;49.794;10.024;2023-06-14T13:56:41;3.92;;;2.67;;
24635;SDS011;12772;49.794;10.024;2023-06-14T14:00:43;4.38;;;2.28;;
24635;SDS011;12772;49.794;10.024;2023-06-14T14:04:45;2.67;;;2.47;;
24635;SDS011;12772;49.794;10.024;2023-06-14T14:08:51;4.35;;;2.65;;
24635;SDS011;12772;49.794;10.024;2023-06-14T14:12:54;4.32;;;2.60;;
24635;SDS011;12772;49.794;10.024;2023-06-14T14:16:57;2.42;;;2.33;;
24635;SDS011;12772;49.794;10.024;2023-06-14T14:20:59;2.70;;;2.50;;
24635;SDS011;12772;49.794;10.024;2023-06-14T14:25:02;2.60;;;2.40;;
24635;SDS011;12772;49.794;10.024;2023-06-14T14:29:04;4.03;;;2.83;;
24635;SDS011;12772;49.794;10.024;2023-06-14T14:33:07;3.10;;;2.80;;
24635;SDS011;12772;49.794;10.024;2023-06-14T14:37:09;3.92;;;3.40;;
24635;SDS011;12772;49.794;10.024;2023-06-14T14:41:11;6.20;;;2.60;;
24635;SDS011;12772;49.794;10.024;2023-06-14T14:45:13;2.70;;;2.50;;
24635;SDS011;12772;49.794;10.024;2023-06-14T14:49:15;2.95;;;2.75;;
24635;SDS011;12772;49.794;10.024;2023-06-14T14:53:17;2.45;;;2.30;;
24635;SDS011;12772;49.794;10.024;2023-06-14T14:57:19;5.70;;;2.30;;
24635;SDS011;12772;49.794;10.024;2023-06-14T15:01:21;2.17;;;2.08;;
24635;SDS011;12772;49.794;10.024;2023-06-14T15:05:23;2.30;;;2.10;;
24635;SDS011;12772;49.794;10.024;2023-06-14T15:09:25;4.22;;;2.38;;
24635;SDS011;12772;49.794;10.024;2023-06-14T15:13:27;3.00;;;2.13;;
24635;SDS011;12772;49.794;10.024;2023-06-14T15:17:29;3.50;;;2.53;;
24635;SDS011;12772;49.794;10.024;2023-06-14T15:21:31;4.32;;;2.42;;
24635;SDS011;12772;49.794;10.024;2023-06-14T15:25:33;4.93;;;2.72;;
24635;SDS011;12772;49.794;10.024;2023-06-14T15:29:35;3.38;;;2.30;;
24635;SDS011;12772;49.794;10.024;2023-06-14T15:33:38;4.30;;;2.22;;
24635;SDS011;12772;49.794;10.024;2023-06-14T15:37:40;2.40;;;2.30;;
24635;SDS011;12772;49.794;10.024;2023-06-14T15:41:42;2.38;;;2.20;;
24635;SDS011;12772;49.794;10.024;2023-06-14T15:45:44;2.78;;;2.58;;
24635;SDS011;12772;49.794;10.024;2023-06-14T15:49:46;2.55;;;2.35;;
24635;SDS011;12772;49.794;10.024;2023-06-14T15:53:48;2.47;;;2.20;;
24635;SDS011;12772;49.794;10.024;2023-06-14T15:57:50;2.28;;;2.13;;
24635;SDS011;12772;49.794;10.024;2023-06-14T16:01:52;2.75;;;2.55;;
24635;SDS011;12772;49.794;10.024;2023-06-14T16:05:54;2.30;;;2.10;;
24635;SDS011;12772;49.794;10.024;2023-06-14T16:09:56;2.33;;;2.22;;
24635;SDS011;12772;49.794;10.024;2023-06-14T16:13:58;3.10;;;2.78;;
24635;SDS011;12772;49.794;10.024;2023-06-14T16:18:00;4.20;;;2.88;;
24635;SDS011;12772;49.794;10.024;2023-06-14T16:22:02;2.22;;;2.13;;
24635;SDS011;12772;49.794;10.024;2023-06-14T16:26:05;4.68;;;2.28;;
24635;SDS011;12772;49.794;10.024;2023-06-14T16:30:10;2.58;;;2.40;;
24635;SDS011;12772;49.794;10.024;2023-06-14T16:34:12;2.40;;;2.30;;
24635;SDS011;12772;49.794;10.024;2023-06-14T16:38:16;2.75;;;2.55;;
24635;SDS011;12772;49.794;10.024;2023-06-14T16:42:19;2.50;;;2.20;;
24635;SDS011;12772;49.794;10.024;2023-06-14T16:46:31;3.97;;;2.53;;
24635;SDS011;12772;49.794;10.024;2023-06-14T16:50:33;2.85;;;2.50;;
24635;SDS011;12772;49.794;10.024;2023-06-14T16:54:35;3.88;;;2.50;;
24635;SDS011;12772;49.794;10.024;2023-06-14T16:58:37;3.47;;;2.50;;
24635;SDS011;12772;49.794;10.024;2023-06-14T17:02:39;2.85;;;2.65;;
24635;SDS011;12772;49.794;10.024;2023-06-14T17:06:41;2.95;;;2.45;;
24635;SDS011;12772;49.794;10.024;2023-06-14T17:10:43;2.70;;;2.50;;
24635;SDS011;12772;49.794;10.024;2023-06-14T17:14:46;2.33;;;2.13;;
24635;SDS011;12772;49.794;10.024;2023-06-14T17:18:49;2.65;;;2.45;;
24635;SDS011;12772;49.794;10.024;2023-06-14T17:22:51;2.20;;;2.10;;
24635;SDS011;12772;49.794;10.024;2023-06-14T17:26:54;2.75;;;2.55;;
24635;SDS011;12772;49.794;10.024;2023-06-14T17:30:57;2.58;;;2.38;;
24635;SDS011;12772;49.794;10.024;2023-06-14T17:34:59;2.85;;;2.40;;
24635;SDS011;12772;49.794;10.024;2023-06-14T17:39:02;4.32;;;2.40;;
24635;SDS011;12772;49.794;10.024;2023-06-14T17:43:04;2.42;;;2.10;;
24635;SDS011;12772;49.794;10.024;2023-06-14T17:47:06;2.60;;;2.40;;
24635;SDS011;12772;49.794;10.024;2023-06-14T17:51:09;2.58;;;2.38;;
24635;SDS011;12772;49.794;10.024;2023-06-14T17:55:11;2.78;;;2.58;;
24635;SDS011;12772;49.794;10.024;2023-06-14T17:59:13;3.08;;;2.70;;
24635;SDS011;12772;49.794;10.024;2023-06-14T18:03:17;2.72;;;2.30;;
24635;SDS011;12772;49.794;10.024;2023-06-14T18:07:19;3.33;;;3.10;;
24635;SDS011;12772;49.794;10.024;2023-06-14T18:11:21;3.08;;;2.55;;
24635;SDS011;12772;49.794;10.024;2023-06-14T18:15:24;5.25;;;2.90;;
24635;SDS011;12772;49.794;10.024;2023-06-14T18:19:26;3.17;;;2.47;;
24635;SDS011;12772;49.794;10.024;2023-06-14T18:23:29;5.15;;;2.83;;
24635;SDS011;12772;49.794;10.024;2023-06-14T18:27:31;2.65;;;2.42;;
24635;SDS011;12772;49.794;10.024;2023-06-14T18:31:33;4.18;;;2.65;;
24635;SDS011;12772;49.794;10.024;2023-06-14T18:35:35;3.55;;;2.80;;
24635;SDS011;12772;49.794;10.024;2023-06-14T18:39:37;4.68;;;2.70;;
24635;SDS011;12772;49.794;10.024;2023-06-14T18:43:39;3.03;;;2.70;;
24635;SDS011;12772;49.794;10.024;2023-06-14T18:47:41;3.13;;;2.92;;
24635;SDS011;12772;49.794;10.024;2023-06-14T18:51:43;3.25;;;3.05;;
24635;SDS011;12772;49.794;10.024;2023-06-14T18:55:45;7.35;;;4.75;;
24635;SDS011;12772;49.794;10.024;2023-06-14T18:59:47;3.75;;;3.45;;
24635;SDS011;12772;49.794;10.024;2023-06-14T19:03:49;2.90;;;2.70;;
24635;SDS011;12772;49.794;10.024;2023-06-14T19:07:51;2.88;;;2.60;;
24635;SDS011;12772;49.794;10.024;2023-06-14T19:11:53;3.10;;;2.90;;
24635;SDS011;12772;49.794;10.024;2023-06-14T19:15:55;3.53;;;3.05;;
24635;SDS011;12772;49.794;10.024;2023-06-14T19:19:57;3.55;;;2.72;;
24635;SDS011;12772;49.794;10.024;2023-06-14T19:24:00;2.58;;;2.33;;
24635;SDS011;12772;49.794;10.024;2023-06-14T19:28:02;2.42;;;2.33;;
24635;SDS011;12772;49.794;10.024;2023-06-14T19:32:05;3.20;;;2.88;;
24635;SDS011;12772;49.794;10.024;2023-06-14T19:36:08;3.35;;;3.05;;
24635;SDS011;12772;49.794;10.024;2023-06-14T19:40:10;8.15;;;5.68;;
24635;SDS011;12772;49.794;10.024;2023-06-14T19:44:13;10.15;;;8.10;;
24635;SDS011;12772;49.794;10.024;2023-06-14T19:48:15;7.32;;;5.82;;
24635;SDS011;12772;49.794;10.024;2023-06-14T19:52:17;4.57;;;3.95;;
24635;SDS011;12772;49.794;10.024;2023-06-14T19:56:19;4.07;;;3.42;;
24635;SDS011;12772;49.794;10.024;2023-06-14T20:00:21;2.92;;;2.72;;
24635;SDS011;12772;49.794;10.024;2023-06-14T20:04:23;4.50;;;2.70;;
24635;SDS011;12772;49.794;10.024;2023-06-14T20:08:25;3.65;;;2.90;;
24635;SDS011;12772;49.794;10.024;2023-06-14T20:12:30;3.17;;;2.88;;
24635;SDS011;12772;49.794;10.024;2023-06-14T20:16:32;3.00;;;2.70;;
24635;SDS011;12772;49.794;10.024;2023-06-14T20:20:35;3.92;;;3.35;;
24635;SDS011;12772;49.794;10.024;2023-06-14T20:24:37;3.55;;;3.25;;
24635;SDS011;12772;49.794;10.024;2023-06-14T20:28:39;2.80;;;2.60;;
24635;SDS011;12772;49.794;10.024;2023-06-14T20:32:41;3.33;;;2.35;;
24635;SDS011;12772;49.794;10.024;2023-06-14T20:36:44;4.50;;;3.13;;
24635;SDS011;12772;49.794;10.024;2023-06-14T20:40:46;2.90;;;2.67;;
24635;SDS011;12772;49.794;10.024;2023-06-14T20:44:49;3.17;;;2.88;;
24635;SDS011;12772;49.794;10.024;2023-06-14T20:48:51;4.30;;;2.70;;
24635;SDS011;12772;49.794;10.024;2023-06-14T20:52:53;3.10;;;2.90;;
24635;SDS011;12772;49.794;10.024;2023-06-14T20:56:55;3.15;;;2.78;;
24635;SDS011;12772;49.794;10.024;2023-06-14T21:00:58;3.20;;;2.97;;
24635;SDS011;12772;49.794;10.024;2023-06-14T21:05:01;2.90;;;2.65;;
24635;SDS011;12772;49.794;10.024;2023-06-14T21:09:04;2.75;;;2.55;;
24635;SDS011;12772;49.794;10.024;2023-06-14T21:13:07;5.05;;;2.70;;
24635;SDS011;12772;49.794;10.024;2023-06-14T21:17:09;4.20;;;3.22;;
24635;SDS011;12772;49.794;10.024;2023-06-14T21:21:11;3.33;;;2.72;;
24635;SDS011;12772;49.794;10.024;2023-06-14T21:25:14;5.13;;;2.85;;
24635;SDS011;12772;49.794;10.024;2023-06-14T21:29:16;3.20;;;2.90;;
24635;SDS011;12772;49.794;10.024;2023-06-14T21:33:18;3.40;;;3.20;;
24635;SDS011;12772;49.794;10.024;2023-06-14T21:37:20;4.78;;;2.80;;
24635;SDS011;12772;49.794;10.024;2023-06-14T21:41:22;5.20;;;3.25;;
24635;SDS011;12772;49.794;10.024;2023-06-14T21:45:24;2.83;;;2.47;;
24635;SDS011;12772;49.794;10.024;2023-06-14T21:49:26;5.68;;;2.90;;
24635;SDS011;12772;49.794;10.024;2023-06-14T21:53:28;3.22;;;2.60;;
24635;SDS011;12772;49.794;10.024;2023-06-14T21:57:32;3.35;;;2.50;;
24635;SDS011;12772;49.794;10.024;2023-06-14T22:01:34;3.38;;;3.08;;
24635;SDS011;12772;49.794;10.024;2023-06-14T22:05:36;2.85;;;2.65;;
24635;SDS011;12772;49.794;10.024;2023-06-14T22:09:38;3.40;;;3.10;;
24635;SDS011;12772;49.794;10.024;2023-06-14T22:13:40;2.92;;;2.72;;
24635;SDS011;12772;49.794;10.024;2023-06-14T22:17:44;5.97;;;5.30;;
24635;SDS011;12772;49.794;10.024;2023-06-14T22:21:47;5.95;;;4.07;;
24635;SDS011;12772;49.794;10.024;2023-06-14T22:25:51;3.22;;;2.92;;
24635;SDS011;12772;49.794;10.024;2023-06-14T22:29:53;4.20;;;3.10;;
24635;SDS011;12772;49.794;10.024;2023-06-14T22:33:58;5.45;;;2.97;;
24635;SDS011;12772;49.794;10.024;2023-06-14T22:38:00;2.55;;;2.35;;
24635;SDS011;12772;49.794;10.024;2023-06-14T22:42:02;4.85;;;2.40;;
24635;SDS011;12772;49.794;10.024;2023-06-14T22:46:07;2.80;;;2.60;;
24635;SDS011;12772;49.794;10.024;2023-06-14T22:50:10;2.47;;;2.28;;
24635;SDS011;12772;49.794;10.024;2023-06-14T22:54:12;3.65;;;2.30;;
24635;SDS011;12772;49.794;10.024;2023-06-14T22:58:14;3.72;;;2.45;;
24635;SDS011;12772;49.794;10.024;2023-06-14T23:02:20;3.70;;;2.58;;
24635;SDS011;12772;49.794;10.024;2023-06-14T23:06:22;2.40;;;2.22;;
24635;SDS011;12772;49.794;10.024;2023-06-14T23:10:26;3.38;;;2.63;;
24635;SDS011;12772;49.794;10.024;2023-06-14T23:14:28;6.18;;;2.90;;
24635;SDS011;12772;49.794;10.024;2023-06-14T23:18:30;2.70;;;2.50;;
24635;SDS011;12772;49.794;10.024;2023-06-14T23:22:33;2.72;;;2.53;;
24635;SDS011;12772;49.794;10.024;2023-06-14T23:26:36;2.50;;;2.33;;
24635;SDS011;12772;49.794;10.024;2023-06-14T23:30:41;2.80;;;2.60;;
24635;SDS011;12772;49.794;10.024;2023-06-14T23:34:46;4.25;;;2.35;;
24635;SDS011;12772;49.794;10.024;2023-06-14T23:38:48;2.80;;;2.60;;
24635;SDS011;12772;49.794;10.024;2023-06-14T23:42:51;2.20;;;2.10;;
24635;SDS011;12772;49.794;10.024;2023-06-14T23:46:53;2.50;;;2.40;;
24635;SDS011;12772;49.794;10.024;2023-06-14T23:50:56;3.08;;;2.78;;
24635;SDS011;12772;49.794;10.024;2023-06-14T23:54:58;2.45;;;2.25;;
24635;SDS011;12772;49.794;10.024;2023-06-14T23:59:01;5.28;;;3.13;;
